createdAt,value
2022-11-14T00:01:21.240Z,72.25
2022-11-14T00:03:52.267Z,67.28
2022-11-14T00:06:20.358Z,71.72
2022-11-14T00:08:48.462Z,64.03
2022-11-14T00:11:16.909Z,72.68
2022-11-14T00:13:45.298Z,67.00
2022-11-14T00:16:13.576Z,76.03
2022-11-14T00:18:41.805Z,65.80
2022-11-14T00:21:11.646Z,71.00
2022-11-14T00:23:39.688Z,65.57
2022-11-14T00:26:08.081Z,61.83
2022-11-14T00:28:36.525Z,52.47
2022-11-14T00:31:04.649Z,57.40
2022-11-14T00:33:33.130Z,67.25
2022-11-14T00:36:01.242Z,69.32
2022-11-14T00:38:31.322Z,65.60
2022-11-14T00:40:59.552Z,62.85
2022-11-14T00:43:28.502Z,64.63
2022-11-14T00:45:56.503Z,58.65
2022-11-14T00:48:24.722Z,63.55
2022-11-14T00:50:53.071Z,54.78
2022-11-14T00:53:21.070Z,52.95
2022-11-14T00:55:50.950Z,50.17
2022-11-14T00:58:18.941Z,53.97
2022-11-14T01:00:47.360Z,51.90
2022-11-14T01:03:15.531Z,54.92
2022-11-14T01:05:44.806Z,72.93
2022-11-14T01:08:13.381Z,63.58
2022-11-14T01:10:42.236Z,60.70
2022-11-14T01:13:12.122Z,58.60
2022-11-14T01:15:41.293Z,66.50
2022-11-14T01:18:10.698Z,54.63
2022-11-14T01:20:40.654Z,57.97
2022-11-14T01:23:09.226Z,51.13
2022-11-14T01:25:38.314Z,56.90
2022-11-14T01:28:08.138Z,53.15
2022-11-14T01:30:37.840Z,54.38
2022-11-14T01:33:06.900Z,64.97
2022-11-14T01:35:36.183Z,45.83
2022-11-14T01:38:05.020Z,53.42
2022-11-14T01:40:33.719Z,44.17
2022-11-14T01:43:24.950Z,54.70
2022-11-14T01:45:57.365Z,55.08
2022-11-14T01:48:29.634Z,61.20
2022-11-14T01:51:00.065Z,57.65
2022-11-14T01:53:28.421Z,52.60
2022-11-14T01:55:59.752Z,59.53
2022-11-14T01:58:29.149Z,57.58
2022-11-14T02:00:59.220Z,54.75
2022-11-14T02:03:27.549Z,58.38
2022-11-14T02:05:55.860Z,63.13
2022-11-14T02:08:24.946Z,65.65
2022-11-14T02:10:53.009Z,52.72
2022-11-14T02:13:21.373Z,57.45
2022-11-14T02:15:49.638Z,56.75
2022-11-14T02:18:19.390Z,69.47
2022-11-14T02:20:48.794Z,60.72
2022-11-14T02:23:26.983Z,60.75
2022-11-14T02:25:55.599Z,65.93
2022-11-14T02:28:23.728Z,56.65
2022-11-14T02:30:52.209Z,53.38
2022-11-14T02:33:20.316Z,59.80
2022-11-14T02:35:49.867Z,59.30
2022-11-14T02:38:18.188Z,57.88
2022-11-14T02:40:46.268Z,62.70
2022-11-14T02:43:14.543Z,83.65
2022-11-14T02:45:42.772Z,64.75
2022-11-14T02:48:11.106Z,68.47
2022-11-14T02:50:39.195Z,63.28
2022-11-14T02:53:08.980Z,71.85
2022-11-14T02:55:37.278Z,61.35
2022-11-14T02:58:05.533Z,70.50
2022-11-14T03:00:33.715Z,69.18
2022-11-14T03:03:02.296Z,59.33
2022-11-14T03:05:30.345Z,64.32
2022-11-14T03:07:58.459Z,66.38
2022-11-14T03:10:28.184Z,71.55
2022-11-14T03:12:57.158Z,59.97
2022-11-14T03:15:25.838Z,63.05
2022-11-14T03:17:53.912Z,69.68
2022-11-14T03:20:21.968Z,72.57
2022-11-14T03:22:50.393Z,59.03
2022-11-14T03:25:18.614Z,47.60
2022-11-14T03:27:48.464Z,54.22
2022-11-14T03:30:16.727Z,54.00
2022-11-14T03:32:45.273Z,54.50
2022-11-14T03:35:13.639Z,53.25
2022-11-14T03:37:41.759Z,53.15
2022-11-14T03:40:10.935Z,76.20
2022-11-14T03:42:38.993Z,56.78
2022-11-14T03:45:09.389Z,57.88
2022-11-14T03:47:37.530Z,60.83
2022-11-14T03:50:06.994Z,61.20
2022-11-14T03:52:35.116Z,58.65
2022-11-14T03:55:03.540Z,58.90
2022-11-14T03:57:31.620Z,88.30
2022-11-14T04:00:00.124Z,58.25
2022-11-14T04:02:29.614Z,60.80
2022-11-14T04:04:57.926Z,62.05
2022-11-14T04:07:25.955Z,72.50
2022-11-14T04:09:54.108Z,61.80
2022-11-14T04:12:22.514Z,55.10
2022-11-14T04:14:50.620Z,68.25
2022-11-14T04:17:18.874Z,68.20
2022-11-14T04:19:48.348Z,65.15
2022-11-14T04:22:16.876Z,57.67
2022-11-14T04:24:44.932Z,76.20
2022-11-14T04:27:13.289Z,62.40
2022-11-14T04:29:41.445Z,67.53
2022-11-14T04:32:09.720Z,60.05
2022-11-14T04:34:37.768Z,65.10
2022-11-14T04:37:07.584Z,55.47
2022-11-14T04:39:35.727Z,71.18
2022-11-14T04:42:04.168Z,49.75
2022-11-14T04:44:32.431Z,62.33
2022-11-14T04:47:00.807Z,69.18
2022-11-14T04:49:28.811Z,53.70
2022-11-14T04:51:57.250Z,73.75
2022-11-14T04:54:26.649Z,52.42
2022-11-14T04:56:54.948Z,57.13
2022-11-14T04:59:23.040Z,53.67
2022-11-14T05:01:51.405Z,59.95
2022-11-14T05:04:19.791Z,43.05
2022-11-14T05:06:48.201Z,37.45
2022-11-14T05:09:16.322Z,42.22
2022-11-14T05:11:46.054Z,40.53
2022-11-14T05:14:14.227Z,37.97
2022-11-14T05:16:42.527Z,34.72
2022-11-14T05:19:10.659Z,43.65
2022-11-14T05:21:39.011Z,41.33
2022-11-14T05:24:07.556Z,38.30
2022-11-14T05:26:35.936Z,38.05
2022-11-14T05:29:05.494Z,39.92
2022-11-14T05:31:33.493Z,36.15
2022-11-14T05:34:01.998Z,52.35
2022-11-14T05:36:30.079Z,42.45
2022-11-14T05:38:58.711Z,46.60
2022-11-14T05:41:26.760Z,63.05
2022-11-14T05:43:55.317Z,46.53
2022-11-14T05:46:24.726Z,54.13
2022-11-14T05:48:53.207Z,44.30
2022-11-14T05:51:21.321Z,50.72
2022-11-14T05:53:49.858Z,40.63
2022-11-14T05:56:17.916Z,34.92
2022-11-14T05:58:46.472Z,45.85
2022-11-14T06:01:15.967Z,44.85
2022-11-14T06:03:46.905Z,55.70
2022-11-14T06:06:17.761Z,54.95
2022-11-14T06:08:46.202Z,49.58
2022-11-14T06:11:16.380Z,38.85
2022-11-14T06:13:45.128Z,43.97
2022-11-14T06:16:15.177Z,39.55
2022-11-14T06:18:45.480Z,42.00
2022-11-14T06:21:14.918Z,45.58
2022-11-14T06:23:43.541Z,43.65
2022-11-14T06:26:16.722Z,42.03
2022-11-14T06:28:45.279Z,53.72
2022-11-14T06:31:13.425Z,46.60
2022-11-14T06:33:41.859Z,43.60
2022-11-14T06:36:11.840Z,43.35
2022-11-14T06:38:41.283Z,51.03
2022-11-14T06:41:10.870Z,49.03
2022-11-14T06:43:41.160Z,39.78
2022-11-14T06:46:10.689Z,38.63
2022-11-14T06:48:39.486Z,49.67
2022-11-14T06:51:08.204Z,47.80
2022-11-14T06:53:38.051Z,38.13
2022-11-14T06:56:07.743Z,42.28
2022-11-14T06:58:39.014Z,41.15
2022-11-14T07:01:08.669Z,38.38
2022-11-14T07:03:37.015Z,50.28
2022-11-14T07:06:06.185Z,40.35
2022-11-14T07:08:35.124Z,42.70
2022-11-14T07:11:05.955Z,40.38
2022-11-14T07:13:35.523Z,35.22
2022-11-14T07:16:03.947Z,35.97
2022-11-14T07:18:33.164Z,37.88
2022-11-14T07:21:02.831Z,43.13
2022-11-14T07:23:32.009Z,39.95
2022-11-14T07:26:03.066Z,41.78
2022-11-14T07:28:33.229Z,43.22
2022-11-14T07:31:03.987Z,39.40
2022-11-14T07:33:32.821Z,37.63
2022-11-14T07:36:00.899Z,31.73
2022-11-14T07:38:29.549Z,38.35
2022-11-14T07:41:00.103Z,38.53
2022-11-14T07:43:29.350Z,42.42
2022-11-14T07:46:01.311Z,43.38
2022-11-14T07:48:30.553Z,50.47
2022-11-14T07:51:02.355Z,39.35
2022-11-14T07:53:31.336Z,53.63
2022-11-14T07:56:04.544Z,52.88
2022-11-14T07:58:33.217Z,46.17
2022-11-14T08:01:03.685Z,43.45
2022-11-14T08:03:32.455Z,43.13
2022-11-14T08:06:04.048Z,46.28
2022-11-14T08:08:32.859Z,39.47
2022-11-14T08:11:01.630Z,46.70
2022-11-14T08:13:32.607Z,39.53
2022-11-14T08:16:12.296Z,39.15
2022-11-14T08:18:42.491Z,39.88
2022-11-14T08:21:10.541Z,41.38
2022-11-14T08:23:38.895Z,35.85
2022-11-14T08:26:07.149Z,34.05
2022-11-14T08:28:35.573Z,34.47
2022-11-14T08:31:04.334Z,41.75
2022-11-14T08:33:34.244Z,46.40
2022-11-14T08:36:02.842Z,43.15
2022-11-14T08:38:32.838Z,44.53
2022-11-14T08:41:01.539Z,48.20
2022-11-14T08:43:30.010Z,37.15
2022-11-14T08:46:01.570Z,44.38
2022-11-14T08:48:31.576Z,48.50
2022-11-14T08:51:04.250Z,41.50
2022-11-14T08:53:32.731Z,33.58
2022-11-14T08:56:00.927Z,34.80
2022-11-14T08:58:31.496Z,34.13
2022-11-14T09:01:03.324Z,34.92
2022-11-14T09:03:31.871Z,37.78
2022-11-14T09:06:01.998Z,32.65
2022-11-14T09:08:31.369Z,33.95
2022-11-14T09:11:05.147Z,35.03
2022-11-14T09:13:36.797Z,34.85
2022-11-14T09:16:05.182Z,27.25
2022-11-14T09:18:33.738Z,34.05
2022-11-14T09:21:03.865Z,35.08
2022-11-14T09:23:32.474Z,31.55
2022-11-14T09:26:05.164Z,30.15
2022-11-14T09:28:33.693Z,35.25
2022-11-14T09:31:02.791Z,40.95
2022-11-14T09:33:31.671Z,35.13
2022-11-14T09:36:00.444Z,34.42
2022-11-14T09:38:35.406Z,39.85
2022-11-14T09:41:17.132Z,39.00
2022-11-14T09:43:58.645Z,39.17
2022-11-14T09:46:29.471Z,46.72
2022-11-14T09:48:57.914Z,36.97
2022-11-14T09:51:27.197Z,41.42
2022-11-14T09:54:00.835Z,43.05
2022-11-14T09:56:28.855Z,42.88
2022-11-14T09:58:57.672Z,37.53
2022-11-14T10:01:34.181Z,42.22
2022-11-14T10:04:10.727Z,34.67
2022-11-14T10:06:47.188Z,30.85
2022-11-14T10:09:31.164Z,32.10
2022-11-14T10:12:05.739Z,32.42
2022-11-14T10:15:05.483Z,46.22
2022-11-14T10:17:45.949Z,35.50
2022-11-14T10:20:19.675Z,34.63
2022-11-14T10:23:04.677Z,34.58
2022-11-14T10:25:44.275Z,33.53
2022-11-14T10:28:32.542Z,35.47
2022-11-14T10:31:07.844Z,36.75
2022-11-14T10:33:44.172Z,42.80
2022-11-14T10:36:19.392Z,37.95
2022-11-14T10:38:51.803Z,39.75
2022-11-14T10:41:49.813Z,45.38
2022-11-14T10:44:12.120Z,42.95
2022-11-14T10:46:45.255Z,39.67
2022-11-14T10:49:17.644Z,40.00
2022-11-14T10:51:48.662Z,43.03
2022-11-14T10:54:19.173Z,39.30
2022-11-14T10:56:50.193Z,40.00
2022-11-14T10:59:18.690Z,41.05
2022-11-14T11:01:55.016Z,39.10
2022-11-14T11:04:27.861Z,41.17
2022-11-14T11:06:57.977Z,44.67
2022-11-14T11:09:45.995Z,39.45
2022-11-14T11:12:20.757Z,36.33
2022-11-14T11:14:50.723Z,37.08
2022-11-14T11:17:29.545Z,46.33
2022-11-14T11:20:23.880Z,48.13
2022-11-14T11:23:03.685Z,61.72
2022-11-14T11:25:33.066Z,43.75
2022-11-14T11:28:07.793Z,40.58
2022-11-14T11:30:35.856Z,37.70
2022-11-14T11:33:17.886Z,35.83
2022-11-14T11:35:47.288Z,39.85
2022-11-14T11:38:16.255Z,40.10
2022-11-14T11:40:45.491Z,40.05
2022-11-14T11:46:13.342Z,43.50
2022-11-14T11:48:41.879Z,51.40
2022-11-14T11:51:15.507Z,52.67
2022-11-14T11:53:46.233Z,47.13
2022-11-14T11:56:17.577Z,44.90
2022-11-14T12:01:16.124Z,37.83
2022-11-14T12:03:48.068Z,36.72
2022-11-14T12:06:17.974Z,36.50
2022-11-14T12:08:57.492Z,34.60
2022-11-14T12:11:27.896Z,32.58
2022-11-14T12:14:29.740Z,36.03
2022-11-14T12:17:22.015Z,33.78
2022-11-14T12:20:05.249Z,35.95
2022-11-14T12:22:51.887Z,33.28
2022-11-14T12:25:51.221Z,38.38
2022-11-14T12:28:32.550Z,38.88
2022-11-14T12:31:04.740Z,41.72
2022-11-14T12:33:35.614Z,37.63
2022-11-14T12:36:06.957Z,41.70
2022-11-14T12:38:42.315Z,41.90
2022-11-14T12:41:11.374Z,39.90
2022-11-14T12:43:41.848Z,38.45
2022-11-14T12:46:13.173Z,33.75
2022-11-14T12:48:43.133Z,50.60
2022-11-14T12:51:48.785Z,41.92
2022-11-14T12:54:45.871Z,33.58
2022-11-14T12:57:41.856Z,36.90
2022-11-14T13:00:10.570Z,33.25
2022-11-14T13:03:01.523Z,34.50
2022-11-14T13:05:58.692Z,36.95
2022-11-14T13:08:45.665Z,39.53
2022-11-14T13:11:50.600Z,41.05
2022-11-14T13:14:37.476Z,36.15
2022-11-14T13:17:38.951Z,40.08
2022-11-14T13:20:47.031Z,37.88
2022-11-14T13:23:58.778Z,41.20
2022-11-14T13:26:43.924Z,41.78
2022-11-14T13:30:00.281Z,33.33
2022-11-14T13:32:54.170Z,35.85
2022-11-14T13:35:31.579Z,88.90
2022-11-14T13:38:18.794Z,75.43
2022-11-14T13:40:56.875Z,64.60
2022-11-14T13:43:33.525Z,62.45
2022-11-14T13:46:03.283Z,42.45
2022-11-14T13:48:55.626Z,42.90
2022-11-14T13:54:17.606Z,45.35
2022-11-14T13:56:55.531Z,44.05
2022-11-14T13:59:49.104Z,44.47
2022-11-14T14:02:52.624Z,42.38
2022-11-14T14:05:27.871Z,44.10
2022-11-14T14:08:10.634Z,39.55
2022-11-14T14:10:43.504Z,42.10
2022-11-14T14:13:22.472Z,40.03
2022-11-14T14:16:00.169Z,40.42
2022-11-14T14:18:42.104Z,40.58
2022-11-14T14:21:16.693Z,43.50
2022-11-14T14:23:48.886Z,52.03
2022-11-14T14:26:23.281Z,44.63
2022-11-14T14:28:57.535Z,46.15
2022-11-14T14:31:25.992Z,44.03
2022-11-14T14:33:54.068Z,42.75
2022-11-14T14:36:25.801Z,45.13
2022-11-14T14:39:13.355Z,43.50
2022-11-14T14:41:42.359Z,43.67
2022-11-14T14:44:20.425Z,49.90
2022-11-14T14:46:48.951Z,46.45
2022-11-14T14:49:21.129Z,54.42
2022-11-14T14:51:52.135Z,50.75
2022-11-14T14:54:25.978Z,55.53
2022-11-14T14:56:55.691Z,56.10
2022-11-14T14:59:26.745Z,54.83
2022-11-14T15:04:26.522Z,55.78
2022-11-14T15:06:57.716Z,52.53
2022-11-14T15:09:28.135Z,49.25
2022-11-14T15:11:59.277Z,52.47
2022-11-14T15:14:31.780Z,67.18
2022-11-14T15:17:01.756Z,99.70
2022-11-14T15:19:36.638Z,75.45
2022-11-14T15:22:07.189Z,54.53
2022-11-14T15:24:35.261Z,46.45
2022-11-14T15:27:05.938Z,49.92
2022-11-14T15:29:35.527Z,49.88
2022-11-14T15:32:05.888Z,56.20
2022-11-14T15:34:35.439Z,55.85
2022-11-14T15:37:21.745Z,76.43
2022-11-14T15:39:49.989Z,49.88
2022-11-14T15:42:22.114Z,54.30
2022-11-14T15:44:51.922Z,58.75
2022-11-14T15:47:23.106Z,59.67
2022-11-14T15:49:58.309Z,53.85
2022-11-14T15:52:30.622Z,48.20
2022-11-14T15:54:58.782Z,54.17
2022-11-14T15:57:27.141Z,54.30
2022-11-14T15:59:56.691Z,55.85
2022-11-14T16:02:26.912Z,50.33
2022-11-14T16:04:55.524Z,50.03
2022-11-14T16:07:24.012Z,49.63
2022-11-14T16:09:52.351Z,50.25
2022-11-14T16:12:20.744Z,53.15
2022-11-14T16:14:48.889Z,54.47
2022-11-14T16:17:19.348Z,52.55
2022-11-14T16:19:47.475Z,52.85
2022-11-14T16:22:18.619Z,69.72
2022-11-14T16:24:46.868Z,56.33
2022-11-14T16:27:15.607Z,73.15
2022-11-14T16:29:43.698Z,60.50
2022-11-14T16:32:12.369Z,57.15
2022-11-14T16:34:41.882Z,66.18
2022-11-14T16:37:13.633Z,60.45
2022-11-14T16:39:41.791Z,63.72
2022-11-14T16:42:11.294Z,57.97
2022-11-14T16:44:42.880Z,60.22
2022-11-14T16:47:14.609Z,54.55
2022-11-14T16:49:44.043Z,58.83
2022-11-14T16:52:13.282Z,59.00
2022-11-14T16:54:41.495Z,51.88
2022-11-14T16:57:09.875Z,50.35
2022-11-14T16:59:38.341Z,54.92
2022-11-14T17:02:07.131Z,56.13
2022-11-14T17:04:35.289Z,53.78
2022-11-14T17:07:05.104Z,64.88
2022-11-14T17:09:33.291Z,56.70
2022-11-14T17:12:01.629Z,58.13
2022-11-14T17:14:29.938Z,58.60
2022-11-14T17:17:04.357Z,55.38
2022-11-14T17:19:32.625Z,60.80
2022-11-14T17:22:00.962Z,62.53
2022-11-14T17:24:31.662Z,60.42
2022-11-14T17:27:00.743Z,57.00
2022-11-14T17:29:28.800Z,72.32
2022-11-14T17:31:57.170Z,71.47
2022-11-14T17:34:25.269Z,64.25
2022-11-14T17:36:53.677Z,62.15
2022-11-14T17:39:21.729Z,64.30
2022-11-14T17:41:51.521Z,67.57
2022-11-14T17:44:19.719Z,65.72
2022-11-14T17:46:48.313Z,66.18
2022-11-14T17:49:16.439Z,78.63
2022-11-14T17:51:44.816Z,71.97
2022-11-14T17:54:12.935Z,68.00
2022-11-14T17:56:46.564Z,68.10
2022-11-14T17:59:19.239Z,71.32
2022-11-14T18:01:47.779Z,70.47
2022-11-14T18:04:16.056Z,68.38
2022-11-14T18:06:44.437Z,77.55
2022-11-14T18:09:14.365Z,74.95
2022-11-14T18:11:43.040Z,76.33
2022-11-14T18:14:11.910Z,79.38
2022-11-14T18:17:10.548Z,85.78
2022-11-14T18:19:29.863Z,79.28
2022-11-14T18:21:58.171Z,78.55
2022-11-14T18:24:26.204Z,66.80
2022-11-14T18:26:55.574Z,88.68
2022-11-14T18:29:23.799Z,88.43
2022-11-14T18:31:53.504Z,82.47
2022-11-14T18:34:21.595Z,73.75
2022-11-14T18:36:50.198Z,100.03
2022-11-14T18:39:18.181Z,200.25
2022-11-14T18:41:46.509Z,120.05
2022-11-14T18:44:14.747Z,103.13
2022-11-14T18:46:43.100Z,106.32
2022-11-14T18:49:12.760Z,99.13
2022-11-14T18:51:42.326Z,74.20
2022-11-14T18:54:12.684Z,74.47
2022-11-14T18:56:41.725Z,75.47
2022-11-14T18:59:12.290Z,80.63
2022-11-14T19:01:41.472Z,80.05
2022-11-14T19:04:12.382Z,80.22
2022-11-14T19:06:41.908Z,93.80
2022-11-14T19:09:11.930Z,70.75
2022-11-14T19:11:57.859Z,88.88
2022-11-14T19:14:26.074Z,84.68
2022-11-14T19:16:54.678Z,79.15
2022-11-14T19:19:24.245Z,87.80
2022-11-14T19:21:52.760Z,77.15
2022-11-14T19:24:21.094Z,89.70
2022-11-14T19:26:49.207Z,80.82
2022-11-14T19:29:17.797Z,76.07
2022-11-14T19:31:46.073Z,75.50
2022-11-14T19:34:15.836Z,81.20
2022-11-14T19:36:59.557Z,74.05
2022-11-14T19:39:28.856Z,64.03
2022-11-14T19:41:56.982Z,85.18
2022-11-14T19:44:25.482Z,80.13
2022-11-14T19:46:53.586Z,71.90
2022-11-14T19:49:22.079Z,71.40
2022-11-14T19:51:51.591Z,80.78
2022-11-14T19:54:19.984Z,69.03
2022-11-14T19:56:48.080Z,75.57
2022-11-14T19:59:20.177Z,71.20
2022-11-14T20:02:03.122Z,69.07
2022-11-14T20:04:36.867Z,66.45
2022-11-14T20:07:07.365Z,76.15
2022-11-14T20:09:35.959Z,64.25
2022-11-14T20:12:04.018Z,67.80
2022-11-14T20:14:32.435Z,65.03
2022-11-14T20:17:00.488Z,76.05
2022-11-14T20:19:28.904Z,85.05
2022-11-14T20:21:57.040Z,63.88
2022-11-14T20:24:26.894Z,66.70
2022-11-14T20:26:55.120Z,71.72
2022-11-14T20:29:23.806Z,61.72
2022-11-14T20:31:51.933Z,66.22
2022-11-14T20:34:20.299Z,69.78
2022-11-14T20:39:38.093Z,77.40
2022-11-14T20:42:06.660Z,76.00
2022-11-14T20:44:35.183Z,84.75
2022-11-14T20:47:07.124Z,77.57
2022-11-14T20:49:38.134Z,80.82
2022-11-14T20:52:06.565Z,78.28
2022-11-14T20:54:34.929Z,74.53
2022-11-14T20:57:04.529Z,71.93
2022-11-14T20:59:33.308Z,66.90
2022-11-14T21:02:01.421Z,62.78
2022-11-14T21:04:30.056Z,72.45
2022-11-14T21:06:58.301Z,71.03
2022-11-14T21:09:28.159Z,67.70
2022-11-14T21:11:56.236Z,63.53
2022-11-14T21:14:26.129Z,69.50
2022-11-14T21:16:54.231Z,67.40
2022-11-14T21:19:22.814Z,66.47
2022-11-14T21:21:51.009Z,79.63
2022-11-14T21:24:19.504Z,72.43
2022-11-14T21:26:47.666Z,78.85
2022-11-14T21:29:16.062Z,68.80
2022-11-14T21:31:47.020Z,77.00
2022-11-14T21:34:18.066Z,76.85
2022-11-14T21:36:47.335Z,72.30
2022-11-14T21:39:17.722Z,73.88
2022-11-14T21:41:48.440Z,71.88
2022-11-14T21:44:18.500Z,59.15
2022-11-14T21:46:49.674Z,66.82
2022-11-14T21:49:18.271Z,63.22
2022-11-14T21:51:47.234Z,70.20
2022-11-14T21:54:15.758Z,70.75
2022-11-14T21:56:43.892Z,60.85
2022-11-14T21:59:16.040Z,68.30
2022-11-14T22:02:03.395Z,66.00
2022-11-14T22:04:33.679Z,58.78
2022-11-14T22:07:04.879Z,66.93
2022-11-14T22:09:33.837Z,67.40
2022-11-14T22:12:02.318Z,64.88
2022-11-14T22:14:30.784Z,69.75
2022-11-14T22:16:59.141Z,61.05
2022-11-14T22:19:27.683Z,57.90
2022-11-14T22:21:57.170Z,57.35
2022-11-14T22:24:25.761Z,63.55
2022-11-14T22:26:53.811Z,50.78
2022-11-14T22:29:22.351Z,60.22
2022-11-14T22:31:53.006Z,61.05
2022-11-14T22:34:21.448Z,61.35
2022-11-14T22:36:49.634Z,63.25
2022-11-14T22:39:19.297Z,54.83
2022-11-14T22:41:47.509Z,60.60
2022-11-14T22:44:15.839Z,58.95
2022-11-14T22:46:43.922Z,55.80
2022-11-14T22:49:14.214Z,61.42
2022-11-14T22:51:45.426Z,63.13
2022-11-14T22:54:14.368Z,52.95
2022-11-14T22:56:43.798Z,51.65
2022-11-14T22:59:12.250Z,48.95
2022-11-14T23:01:40.298Z,62.03
2022-11-14T23:04:10.260Z,47.78
2022-11-14T23:06:38.274Z,52.17
2022-11-14T23:09:06.696Z,66.05
2022-11-14T23:11:34.977Z,44.03
2022-11-14T23:14:04.822Z,53.88
2022-11-14T23:16:33.935Z,70.15
2022-11-14T23:19:04.294Z,51.72
2022-11-14T23:21:34.256Z,46.95
2022-11-14T23:24:06.361Z,58.20
2022-11-14T23:26:34.572Z,62.15
2022-11-14T23:29:04.542Z,53.25
2022-11-14T23:31:32.621Z,50.78
2022-11-14T23:34:00.965Z,47.90
2022-11-14T23:36:29.203Z,49.38
2022-11-14T23:38:57.554Z,43.38
2022-11-14T23:41:26.803Z,42.08
2022-11-14T23:43:55.197Z,42.70
2022-11-14T23:46:24.665Z,38.20
2022-11-14T23:48:53.503Z,44.08
2022-11-14T23:51:21.729Z,46.20
2022-11-14T23:53:50.740Z,42.22
2022-11-14T23:56:19.039Z,45.22
2022-11-14T23:58:47.616Z,42.95
